Time;durP1;ratioP1;P1;durP2;ratioP2;P2;SDS_P1;SDS_P2;PMS_P1;PMS_P2;Temp;Humidity;BMP_temperature;BMP_pressure;BME280_temperature;BME280_humidity;BME280_pressure;Samples;Min_cycle;Max_cycle;Signal;HPM_P1;HPM_P2
2023/10/30 00:01:39;;;;;;;1.43;1.33;;;12.40;99.90;;;;;;5070909;28;20495;-71
2023/10/30 00:04:05;;;;;;;3.67;1.20;;;12.50;99.90;;;;;;5070928;28;20209;-72
2023/10/30 00:06:32;;;;;;;1.00;0.90;;;12.60;99.90;;;;;;5070708;28;20225;-71
2023/10/30 00:08:58;;;;;;;1.00;0.90;;;12.60;99.90;;;;;;5070493;28;20436;-71
2023/10/30 00:11:23;;;;;;;2.13;1.30;;;12.70;99.90;;;;;;5069185;28;20414;-71
2023/10/30 00:13:49;;;;;;;1.63;1.00;;;12.70;99.90;;;;;;5070472;28;20279;-71
2023/10/30 00:16:15;;;;;;;1.10;1.00;;;12.80;99.90;;;;;;5068805;28;20195;-71
2023/10/30 00:18:41;;;;;;;4.27;1.73;;;12.80;99.90;;;;;;5068965;28;20195;-71
2023/10/30 00:21:10;;;;;;;2.10;1.47;;;12.70;99.90;;;;;;5070239;28;20555;-71
2023/10/30 00:23:36;;;;;;;2.10;1.67;;;12.60;99.90;;;;;;5070190;28;20428;-70
2023/10/30 00:26:03;;;;;;;7.20;1.93;;;12.50;99.90;;;;;;5070012;28;20508;-72
2023/10/30 00:28:30;;;;;;;1.40;1.27;;;12.40;99.90;;;;;;5069936;28;20488;-72
2023/10/30 00:30:56;;;;;;;2.40;2.20;;;12.40;99.90;;;;;;5069841;28;20538;-72
2023/10/30 00:33:21;;;;;;;4.23;2.30;;;12.40;99.90;;;;;;5070152;28;20403;-71
2023/10/30 00:35:47;;;;;;;2.20;1.60;;;12.40;99.90;;;;;;5068367;28;20502;-71
2023/10/30 00:38:13;;;;;;;5.23;2.10;;;12.30;99.90;;;;;;5069702;28;20195;-71
2023/10/30 00:40:38;;;;;;;2.73;2.20;;;12.30;99.90;;;;;;5069276;28;20202;-71
2023/10/30 00:43:04;;;;;;;2.70;2.17;;;12.30;99.90;;;;;;5069665;28;20182;-71
2023/10/30 00:45:30;;;;;;;4.27;2.30;;;12.20;99.90;;;;;;5069604;28;20181;-71
2023/10/30 00:47:56;;;;;;;3.57;1.90;;;12.20;99.90;;;;;;5069661;28;20433;-71
2023/10/30 00:50:22;;;;;;;3.13;2.33;;;12.20;99.90;;;;;;5069699;28;20417;-71
2023/10/30 00:52:47;;;;;;;4.03;2.13;;;12.20;99.90;;;;;;5068372;28;20502;-72
2023/10/30 00:55:13;;;;;;;2.00;1.80;;;12.20;99.90;;;;;;5069666;28;20190;-71
2023/10/30 00:57:39;;;;;;;1.77;1.67;;;12.20;99.90;;;;;;5069737;28;20210;-71
2023/10/30 01:00:05;;;;;;;2.43;1.93;;;12.10;99.90;;;;;;5069712;28;20268;-71
2023/10/30 01:02:31;;;;;;;2.70;2.13;;;12.10;99.90;;;;;;5069956;28;20236;-71
2023/10/30 01:04:57;;;;;;;2.67;2.10;;;12.00;99.90;;;;;;5069950;28;20414;-72
2023/10/30 01:07:23;;;;;;;1.90;1.80;;;12.00;99.90;;;;;;5069830;28;20213;-72
2023/10/30 01:09:49;;;;;;;2.10;1.90;;;11.80;99.90;;;;;;5069712;28;20421;-72
2023/10/30 01:12:15;;;;;;;9.13;1.90;;;11.80;99.90;;;;;;5068229;28;20429;-71
2023/10/30 01:14:40;;;;;;;2.50;1.60;;;11.70;99.90;;;;;;5067995;28;20185;-71
2023/10/30 01:17:06;;;;;;;2.30;1.93;;;11.60;99.90;;;;;;5069293;28;20258;-71
2023/10/30 01:19:32;;;;;;;1.70;1.60;;;11.60;99.90;;;;;;5051116;28;20201;-71
2023/10/30 01:21:57;;;;;;;2.67;1.73;;;11.50;99.90;;;;;;5068966;28;20240;-71
2023/10/30 01:24:23;;;;;;;4.10;2.30;;;11.50;99.90;;;;;;5069031;28;20186;-71
2023/10/30 01:26:48;;;;;;;6.00;2.00;;;11.50;99.90;;;;;;5067531;28;20198;-71
2023/10/30 01:29:14;;;;;;;2.83;1.83;;;11.50;99.90;;;;;;5067529;28;20213;-72
2023/10/30 01:31:39;;;;;;;3.47;2.43;;;11.40;99.90;;;;;;5068939;28;20182;-71
2023/10/30 01:34:05;;;;;;;2.57;1.80;;;11.50;99.90;;;;;;5069133;28;20539;-71
2023/10/30 01:36:31;;;;;;;2.40;1.80;;;11.40;99.90;;;;;;5067553;28;20664;-70
2023/10/30 01:38:58;;;;;;;6.40;1.90;;;11.20;99.90;;;;;;5068619;28;20667;-70
2023/10/30 01:41:23;;;;;;;3.33;1.50;;;11.20;99.90;;;;;;5067310;28;20209;-71
2023/10/30 01:43:49;;;;;;;2.17;1.70;;;11.10;99.90;;;;;;5068622;28;20410;-71
2023/10/30 01:46:15;;;;;;;1.47;1.20;;;11.10;99.90;;;;;;5068615;28;20276;-71
2023/10/30 01:48:41;;;;;;;1.30;1.20;;;11.10;99.90;;;;;;5068664;28;20200;-71
2023/10/30 01:51:08;;;;;;;3.13;2.00;;;11.10;99.90;;;;;;5068038;28;20428;-71
2023/10/30 01:53:34;;;;;;;5.83;2.40;;;11.00;99.90;;;;;;5067204;28;20498;-70
2023/10/30 01:56:03;;;;;;;7.00;1.60;;;10.90;99.90;;;;;;5068622;28;20427;-70
2023/10/30 01:58:29;;;;;;;2.37;1.70;;;11.00;99.90;;;;;;5068638;28;20445;-71
2023/10/30 02:00:57;;;;;;;2.13;1.90;;;11.10;99.90;;;;;;5068496;28;20467;-71
2023/10/30 02:03:23;;;;;;;2.03;1.70;;;11.10;99.90;;;;;;5068590;28;20424;-73
2023/10/30 02:05:50;;;;;;;3.43;1.73;;;11.10;99.90;;;;;;5068494;28;20415;-71
2023/10/30 02:08:16;;;;;;;3.87;2.33;;;11.10;99.90;;;;;;5066702;28;20233;-71
2023/10/30 02:10:41;;;;;;;5.03;2.23;;;11.00;99.90;;;;;;5066920;28;20444;-70
2023/10/30 02:13:07;;;;;;;2.17;1.90;;;11.00;99.90;;;;;;5068256;28;20417;-72
2023/10/30 02:15:33;;;;;;;2.53;2.03;;;11.00;99.90;;;;;;5068351;28;20190;-71
2023/10/30 02:17:59;;;;;;;4.10;2.30;;;11.00;99.90;;;;;;5068184;28;20470;-71
2023/10/30 02:20:25;;;;;;;2.33;1.93;;;10.90;99.90;;;;;;5068169;28;20264;-71
2023/10/30 02:22:51;;;;;;;2.10;1.97;;;10.90;99.90;;;;;;5068338;28;20222;-71
2023/10/30 02:25:23;;;;;;;3.97;2.30;;;10.80;99.90;;;;;;5068383;28;20493;-70
2023/10/30 02:27:51;;;;;;;1.73;1.63;;;10.80;99.90;;;;;;5068145;28;20212;-71
2023/10/30 02:30:16;;;;;;;2.80;1.80;;;10.70;99.90;;;;;;5068087;28;20412;-70
2023/10/30 02:32:44;;;;;;;3.57;1.90;;;10.70;99.90;;;;;;5068158;28;20420;-71
2023/10/30 02:35:14;;;;;;;1.87;1.67;;;10.60;99.90;;;;;;5068069;28;20426;-71
2023/10/30 02:37:40;;;;;;;2.33;2.13;;;10.60;99.90;;;;;;5067941;28;20441;-71
2023/10/30 02:40:07;;;;;;;2.10;1.97;;;10.60;99.90;;;;;;5067900;28;20420;-69
2023/10/30 02:42:33;;;;;;;3.53;2.30;;;10.50;99.90;;;;;;5068023;28;20839;-71
2023/10/30 02:44:59;;;;;;;2.97;2.33;;;10.50;99.90;;;;;;5068141;28;20409;-70
2023/10/30 02:47:25;;;;;;;3.17;1.83;;;10.40;99.90;;;;;;5066549;28;20539;-70
2023/10/30 02:49:51;;;;;;;2.17;1.87;;;10.40;99.90;;;;;;5067850;28;20203;-70
2023/10/30 02:52:18;;;;;;;3.70;2.23;;;10.40;99.90;;;;;;5067014;28;20553;-69
2023/10/30 02:54:44;;;;;;;3.20;2.50;;;10.20;99.90;;;;;;5068158;28;20432;-70
2023/10/30 02:57:10;;;;;;;2.00;1.83;;;10.10;99.90;;;;;;5068048;28;20419;-70
2023/10/30 02:59:35;;;;;;;3.33;2.23;;;10.10;99.90;;;;;;5068331;28;20923;-71
2023/10/30 03:02:02;;;;;;;2.10;1.83;;;10.10;99.90;;;;;;5068721;28;20713;-71
2023/10/30 03:04:28;;;;;;;2.13;1.93;;;10.00;99.90;;;;;;5071779;28;20179;-71
2023/10/30 03:06:54;;;;;;;2.23;2.10;;;10.10;99.90;;;;;;5070141;28;20419;-71
2023/10/30 03:09:20;;;;;;;2.50;2.13;;;10.00;99.90;;;;;;5069855;28;20964;-70
2023/10/30 03:11:45;;;;;;;5.43;2.20;;;10.00;99.90;;;;;;5071353;28;20185;-71
2023/10/30 03:14:11;;;;;;;3.63;2.87;;;9.80;99.90;;;;;;5070105;28;20669;-71
2023/10/30 03:16:37;;;;;;;2.47;2.27;;;9.80;99.90;;;;;;5071580;28;20189;-70
2023/10/30 03:19:02;;;;;;;3.57;2.57;;;9.90;99.90;;;;;;5070056;28;20287;-71
2023/10/30 03:21:28;;;;;;;3.10;2.50;;;9.90;99.90;;;;;;5071286;28;20239;-71
2023/10/30 03:23:53;;;;;;;4.13;3.00;;;9.80;99.90;;;;;;5071324;28;20236;-71
2023/10/30 03:26:19;;;;;;;3.40;2.70;;;9.80;99.90;;;;;;5070958;28;20191;-71
2023/10/30 03:28:45;;;;;;;3.03;2.50;;;9.70;99.90;;;;;;5053229;28;20210;-71
2023/10/30 03:31:10;;;;;;;8.13;2.23;;;9.70;99.90;;;;;;5071119;28;20204;-70
2023/10/30 03:33:36;;;;;;;3.33;3.00;;;9.70;99.90;;;;;;5070987;28;20418;-71
2023/10/30 03:36:03;;;;;;;6.57;3.17;;;9.80;99.90;;;;;;5069453;28;20211;-71
2023/10/30 03:38:29;;;;;;;3.30;2.50;;;9.80;99.90;;;;;;5070893;28;20208;-70
2023/10/30 03:40:54;;;;;;;3.63;2.37;;;9.80;99.90;;;;;;5069610;28;20995;-71
2023/10/30 03:43:20;;;;;;;3.87;3.13;;;9.90;99.90;;;;;;5069549;28;20185;-71
2023/10/30 03:45:45;;;;;;;4.70;3.17;;;9.90;99.90;;;;;;5070879;28;20189;-70
2023/10/30 03:48:11;;;;;;;3.40;3.10;;;9.90;99.90;;;;;;5070785;28;20205;-71
2023/10/30 03:50:37;;;;;;;7.63;3.30;;;9.90;99.90;;;;;;5069448;28;20209;-71
2023/10/30 03:53:02;;;;;;;3.43;3.13;;;9.90;99.90;;;;;;5071037;28;20246;-70
2023/10/30 03:55:28;;;;;;;14.20;3.90;;;9.90;99.90;;;;;;5071087;28;20733;-70
2023/10/30 03:57:54;;;;;;;4.23;3.60;;;9.80;99.90;;;;;;5071087;28;20231;-70
2023/10/30 04:00:19;;;;;;;4.90;4.07;;;9.70;99.90;;;;;;5070134;28;20190;-71
2023/10/30 04:02:45;;;;;;;4.40;4.00;;;9.80;99.90;;;;;;5071289;28;20171;-71
2023/10/30 04:05:11;;;;;;;6.73;5.40;;;9.90;99.90;;;;;;5071122;28;20676;-69
2023/10/30 04:07:36;;;;;;;5.70;4.07;;;9.80;99.90;;;;;;5069581;28;20303;-71
2023/10/30 04:10:03;;;;;;;6.17;4.67;;;9.80;99.90;;;;;;5071081;28;20662;-70
2023/10/30 04:12:29;;;;;;;7.63;5.10;;;9.80;99.90;;;;;;5070754;28;20186;-71
2023/10/30 04:14:55;;;;;;;7.57;5.37;;;9.90;99.90;;;;;;5069598;28;20796;-71
2023/10/30 04:17:21;;;;;;;7.37;5.73;;;9.90;99.90;;;;;;5070625;28;20432;-70
2023/10/30 04:19:46;;;;;;;7.23;6.20;;;10.10;99.90;;;;;;5070414;28;20420;-71
2023/10/30 04:22:12;;;;;;;10.03;7.40;;;10.20;99.90;;;;;;5070362;28;20204;-71
2023/10/30 04:24:37;;;;;;;11.30;8.60;;;10.30;99.90;;;;;;5068855;28;20239;-70
2023/10/30 04:27:03;;;;;;;7.47;6.57;;;10.60;99.90;;;;;;5068371;28;20260;-70
2023/10/30 04:29:29;;;;;;;9.40;7.67;;;10.70;99.90;;;;;;5070040;28;20179;-71
2023/10/30 04:31:54;;;;;;;13.60;7.57;;;10.90;99.90;;;;;;5069875;28;20187;-71
2023/10/30 04:34:20;;;;;;;9.93;7.13;;;10.90;99.90;;;;;;5068624;28;20280;-70
2023/10/30 04:36:46;;;;;;;8.93;7.30;;;11.00;99.90;;;;;;5069828;28;20188;-71
2023/10/30 04:39:13;;;;;;;8.70;7.20;;;11.10;99.90;;;;;;5069925;28;20200;-71
2023/10/30 04:41:39;;;;;;;9.50;7.90;;;11.10;99.90;;;;;;5067977;28;20350;-71
2023/10/30 04:44:05;;;;;;;9.40;7.67;;;11.20;99.90;;;;;;5069859;28;20444;-71
2023/10/30 04:46:31;;;;;;;10.87;8.20;;;11.20;99.90;;;;;;5069470;28;21096;-71
2023/10/30 04:48:56;;;;;;;10.57;7.93;;;11.20;99.90;;;;;;5069823;28;20851;-70
2023/10/30 04:51:22;;;;;;;12.00;8.33;;;11.20;99.90;;;;;;5069521;28;20179;-71
2023/10/30 04:53:48;;;;;;;17.30;8.80;;;11.30;99.90;;;;;;5069400;28;20182;-71
2023/10/30 04:56:13;;;;;;;9.70;7.77;;;11.30;99.90;;;;;;5069432;28;20258;-71
2023/10/30 04:58:39;;;;;;;10.10;8.13;;;11.20;99.90;;;;;;5069280;28;20203;-70
2023/10/30 05:01:09;;;;;;;12.10;9.33;;;11.30;99.90;;;;;;5069019;28;20274;-70
2023/10/30 05:03:37;;;;;;;12.20;8.23;;;11.30;99.90;;;;;;5067302;28;20279;-70
2023/10/30 05:06:03;;;;;;;11.80;8.47;;;11.40;99.90;;;;;;5068464;28;20494;-71
2023/10/30 05:08:29;;;;;;;15.17;8.23;;;11.40;99.90;;;;;;5067111;28;20446;-70
2023/10/30 05:10:55;;;;;;;10.20;8.20;;;11.30;99.90;;;;;;5068294;28;20882;-70
2023/10/30 05:13:20;;;;;;;14.63;8.47;;;11.40;99.90;;;;;;5068591;28;20185;-70
2023/10/30 05:15:46;;;;;;;11.70;9.10;;;11.50;99.90;;;;;;5068280;28;20235;-71
2023/10/30 05:18:13;;;;;;;11.97;8.47;;;11.40;99.90;;;;;;5068291;28;20195;-70
2023/10/30 05:20:39;;;;;;;10.87;9.03;;;11.50;99.90;;;;;;5068455;28;20699;-70
2023/10/30 05:23:04;;;;;;;12.33;8.83;;;11.50;99.90;;;;;;5068489;28;20417;-70
2023/10/30 05:25:30;;;;;;;10.83;8.37;;;11.50;99.90;;;;;;5068467;28;20245;-70
2023/10/30 05:27:57;;;;;;;14.00;8.23;;;11.50;99.90;;;;;;5068415;28;20497;-70
2023/10/30 05:30:23;;;;;;;11.30;8.80;;;11.50;99.90;;;;;;5068657;28;20684;-70
2023/10/30 05:32:48;;;;;;;13.60;9.87;;;11.50;99.90;;;;;;5068420;28;20421;-69
2023/10/30 05:35:14;;;;;;;12.30;9.17;;;11.50;99.90;;;;;;5068486;28;20223;-70
2023/10/30 05:37:40;;;;;;;11.60;9.30;;;11.50;99.90;;;;;;5068452;28;20695;-69
2023/10/30 05:40:07;;;;;;;12.93;9.37;;;11.40;99.90;;;;;;5068263;28;20237;-70
2023/10/30 05:42:34;;;;;;;17.10;10.40;;;11.40;99.90;;;;;;5068075;28;20210;-70
2023/10/30 05:45:00;;;;;;;14.53;10.20;;;11.30;99.90;;;;;;5068158;28;20420;-70
2023/10/30 05:47:25;;;;;;;13.77;10.80;;;11.30;99.90;;;;;;5067796;28;20432;-70
2023/10/30 05:49:51;;;;;;;13.50;9.90;;;11.30;99.90;;;;;;5068049;28;20471;-70
2023/10/30 05:52:16;;;;;;;14.97;9.20;;;11.30;99.90;;;;;;5066296;28;20209;-70
2023/10/30 05:54:42;;;;;;;13.20;9.50;;;11.30;99.90;;;;;;5067879;28;20263;-70
2023/10/30 05:57:09;;;;;;;11.63;10.00;;;11.20;99.90;;;;;;5066336;28;20185;-70
2023/10/30 05:59:34;;;;;;;10.10;8.70;;;11.30;99.90;;;;;;5049848;28;20205;-69
2023/10/30 06:02:00;;;;;;;11.47;8.53;;;11.40;99.90;;;;;;5067499;28;21116;-70
2023/10/30 06:04:26;;;;;;;8.63;7.70;;;11.40;99.90;;;;;;5066433;28;20179;-71
2023/10/30 06:06:53;;;;;;;10.33;7.30;;;11.40;99.90;;;;;;5066049;28;20452;-69
2023/10/30 06:09:19;;;;;;;9.30;7.67;;;11.50;99.90;;;;;;5067444;28;20202;-70
2023/10/30 06:11:48;;;;;;;10.27;7.70;;;11.40;99.90;;;;;;5067487;28;20484;-70
2023/10/30 06:14:14;;;;;;;9.40;7.40;;;11.30;99.90;;;;;;5066213;28;20598;-69
2023/10/30 06:16:40;;;;;;;12.83;7.80;;;11.20;99.90;;;;;;5067682;28;20428;-70
2023/10/30 06:19:06;;;;;;;8.67;6.87;;;11.20;99.90;;;;;;5067794;28;20473;-69
2023/10/30 06:21:32;;;;;;;8.03;5.80;;;11.10;99.90;;;;;;5067562;28;20517;-71
2023/10/30 06:23:57;;;;;;;11.37;7.70;;;11.20;99.90;;;;;;5067537;28;20260;-70
2023/10/30 06:26:23;;;;;;;10.27;7.00;;;11.20;99.90;;;;;;5067268;28;20212;-70
2023/10/30 06:28:48;;;;;;;8.27;6.33;;;11.10;99.90;;;;;;5066099;28;20231;-70
2023/10/30 06:31:14;;;;;;;7.27;6.20;;;11.00;99.90;;;;;;5067400;28;20205;-71
2023/10/30 06:33:40;;;;;;;7.10;5.40;;;11.00;99.90;;;;;;5067247;28;20188;-70
2023/10/30 06:36:06;;;;;;;6.90;4.80;;;11.10;99.90;;;;;;5065933;28;20425;-70
2023/10/30 06:38:33;;;;;;;6.33;5.63;;;11.30;99.90;;;;;;5068887;28;20445;-70
2023/10/30 06:40:58;;;;;;;6.43;4.53;;;11.40;99.90;;;;;;5071072;28;20537;-70
2023/10/30 06:43:24;;;;;;;5.80;4.77;;;11.50;99.90;;;;;;5070004;28;20434;-70
2023/10/30 06:46:01;;;;;;;7.00;5.40;;;11.50;99.90;;;;;;5071258;28;20196;-70
2023/10/30 06:48:26;;;;;;;6.30;4.80;;;11.50;99.90;;;;;;5071269;28;20197;-70
2023/10/30 06:50:52;;;;;;;7.43;4.90;;;11.60;99.90;;;;;;5071135;28;20840;-71
2023/10/30 06:53:17;;;;;;;7.50;4.83;;;11.60;99.90;;;;;;5071140;28;20186;-71
2023/10/30 06:55:43;;;;;;;5.70;4.80;;;11.70;99.90;;;;;;5071131;28;20188;-71
2023/10/30 06:58:09;;;;;;;5.00;3.70;;;11.80;99.90;;;;;;5069477;28;20203;-70
2023/10/30 07:00:35;;;;;;;4.70;4.03;;;11.80;99.90;;;;;;5068910;28;20288;-70
2023/10/30 07:03:01;;;;;;;7.00;4.57;;;11.90;99.90;;;;;;5070792;28;20217;-70
2023/10/30 07:05:27;;;;;;;5.20;3.90;;;11.90;99.90;;;;;;5070542;28;20911;-70
2023/10/30 07:07:52;;;;;;;4.13;3.67;;;11.90;99.90;;;;;;5070632;28;20202;-70
2023/10/30 07:10:18;;;;;;;3.77;3.20;;;11.90;99.90;;;;;;5069233;28;20268;-71
2023/10/30 07:12:43;;;;;;;3.50;2.97;;;12.00;99.90;;;;;;5070508;28;20179;-70
2023/10/30 07:15:10;;;;;;;7.50;3.97;;;12.10;99.90;;;;;;5070670;28;20224;-72
2023/10/30 07:17:35;;;;;;;3.33;3.10;;;12.10;99.90;;;;;;5070767;28;20326;-71
2023/10/30 07:20:02;;;;;;;4.93;3.40;;;12.10;99.90;;;;;;5070754;28;21376;-71
2023/10/30 07:22:28;;;;;;;3.23;2.97;;;12.10;99.90;;;;;;5070767;28;20974;-71
2023/10/30 07:24:54;;;;;;;6.63;3.43;;;12.20;99.90;;;;;;5070191;28;20638;-71
2023/10/30 07:27:20;;;;;;;3.67;3.33;;;12.30;99.90;;;;;;5068376;28;20457;-71
2023/10/30 07:29:46;;;;;;;3.57;3.27;;;12.40;99.90;;;;;;5070209;28;20422;-70
2023/10/30 07:32:11;;;;;;;4.30;3.00;;;12.40;99.90;;;;;;5068530;28;20320;-70
2023/10/30 07:34:37;;;;;;;4.33;2.90;;;12.40;99.90;;;;;;5068969;28;20194;-70
2023/10/30 07:37:02;;;;;;;2.93;2.57;;;12.50;99.90;;;;;;5069797;28;20205;-72
2023/10/30 07:39:28;;;;;;;3.27;2.83;;;12.50;99.90;;;;;;5069771;28;20893;-71
2023/10/30 07:41:53;;;;;;;4.33;2.23;;;12.50;99.90;;;;;;5051697;28;20217;-71
2023/10/30 07:44:19;;;;;;;2.90;2.23;;;12.60;99.90;;;;;;5069588;28;20541;-71
2023/10/30 07:46:45;;;;;;;2.30;2.00;;;12.60;99.90;;;;;;5069850;28;20243;-70
2023/10/30 07:49:10;;;;;;;3.63;2.53;;;12.70;99.90;;;;;;5069580;28;20195;-70
2023/10/30 07:51:36;;;;;;;2.80;1.70;;;12.80;99.90;;;;;;5051627;28;20210;-70
2023/10/30 07:54:01;;;;;;;2.20;2.00;;;13.00;99.90;;;;;;5069443;28;20189;-70
2023/10/30 07:56:28;;;;;;;1.83;1.73;;;13.20;99.90;;;;;;5067959;28;20319;-70
2023/10/30 07:58:53;;;;;;;2.13;1.80;;;13.40;99.90;;;;;;5068044;28;20199;-70
2023/10/30 08:01:20;;;;;;;2.93;1.33;;;13.50;99.90;;;;;;5067658;28;20475;-70
2023/10/30 08:03:46;;;;;;;2.13;1.30;;;13.60;99.90;;;;;;5067807;28;20221;-71
2023/10/30 08:06:12;;;;;;;1.10;1.00;;;13.80;99.90;;;;;;5067632;28;20420;-70
2023/10/30 08:08:38;;;;;;;2.33;1.43;;;14.00;99.90;;;;;;5069017;28;20441;-70
2023/10/30 08:11:04;;;;;;;1.17;1.07;;;14.20;99.90;;;;;;5069239;28;20449;-71
2023/10/30 08:13:31;;;;;;;1.60;1.20;;;14.20;99.90;;;;;;5068954;28;20425;-70
2023/10/30 08:15:56;;;;;;;5.63;1.53;;;14.40;99.90;;;;;;5067687;28;20190;-70
2023/10/30 08:18:22;;;;;;;1.73;1.10;;;14.60;99.90;;;;;;5067035;28;20449;-70
2023/10/30 08:20:48;;;;;;;2.90;1.50;;;14.60;99.90;;;;;;5067590;28;20298;-71
2023/10/30 08:23:15;;;;;;;5.83;1.47;;;14.80;99.90;;;;;;5068859;28;20176;-71
2023/10/30 08:25:41;;;;;;;2.07;1.20;;;14.90;99.90;;;;;;5067546;28;20650;-70
2023/10/30 08:28:06;;;;;;;1.93;1.30;;;14.70;99.90;;;;;;5068360;28;20511;-71
2023/10/30 08:30:32;;;;;;;3.10;0.90;;;14.90;99.90;;;;;;5068679;28;20176;-70
2023/10/30 08:32:58;;;;;;;1.40;0.87;;;15.10;99.90;;;;;;5068553;28;20183;-70
2023/10/30 08:35:23;;;;;;;1.37;1.17;;;15.20;99.90;;;;;;5068566;28;20217;-70
2023/10/30 08:37:49;;;;;;;1.10;0.90;;;15.30;99.90;;;;;;5067119;28;20201;-70
2023/10/30 08:40:15;;;;;;;2.60;1.07;;;15.80;99.90;;;;;;5068571;28;20663;-70
2023/10/30 08:42:41;;;;;;;1.70;1.07;;;15.50;99.90;;;;;;5068340;28;20294;-70
2023/10/30 08:45:07;;;;;;;1.30;0.93;;;15.90;99.90;;;;;;5068372;28;20563;-70
2023/10/30 08:47:33;;;;;;;3.10;1.07;;;16.40;99.90;;;;;;5068341;28;20194;-70
2023/10/30 08:49:59;;;;;;;1.20;0.60;;;16.70;99.90;;;;;;5068450;28;20928;-71
2023/10/30 08:52:24;;;;;;;1.07;0.80;;;17.10;99.90;;;;;;5066937;28;20189;-70
2023/10/30 08:54:50;;;;;;;2.30;1.23;;;18.00;99.90;;;;;;5068453;28;20186;-70
2023/10/30 08:57:19;;;;;;;3.17;1.10;;;18.00;99.90;;;;;;5068140;28;20182;-70
2023/10/30 08:59:45;;;;;;;2.20;1.03;;;17.90;99.90;;;;;;5067736;28;20188;-70
2023/10/30 09:02:11;;;;;;;3.57;1.03;;;18.20;99.90;;;;;;5066640;28;20576;-70
2023/10/30 09:04:36;;;;;;;1.00;0.70;;;18.30;99.90;;;;;;5068203;28;20411;-70
2023/10/30 09:07:03;;;;;;;2.90;0.87;;;17.10;99.90;;;;;;5067883;28;20545;-70
2023/10/30 09:09:29;;;;;;;1.57;0.80;;;17.30;99.90;;;;;;5067885;28;20997;-70
2023/10/30 09:11:55;;;;;;;1.40;0.83;;;17.20;99.90;;;;;;5067745;28;20519;-69
2023/10/30 09:14:20;;;;;;;1.50;0.70;;;17.50;99.90;;;;;;5066510;28;20219;-70
2023/10/30 09:16:46;;;;;;;1.63;0.93;;;17.70;99.90;;;;;;5067771;28;20442;-70
2023/10/30 09:19:12;;;;;;;1.83;0.80;;;18.00;99.90;;;;;;5068059;28;20196;-70
2023/10/30 09:21:37;;;;;;;2.03;0.60;;;18.60;99.90;;;;;;5067686;28;20235;-70
2023/10/30 09:24:03;;;;;;;1.67;0.90;;;18.20;99.90;;;;;;5066430;28;20241;-70
2023/10/30 09:26:29;;;;;;;1.47;0.83;;;18.20;99.90;;;;;;5067934;28;20198;-69
2023/10/30 09:28:55;;;;;;;2.13;0.90;;;17.90;99.90;;;;;;5066915;28;20445;-71
2023/10/30 09:31:21;;;;;;;1.53;0.77;;;17.70;99.90;;;;;;5066960;28;20423;-69
2023/10/30 09:33:48;;;;;;;1.10;0.80;;;17.50;99.90;;;;;;5066825;28;20194;-69
2023/10/30 09:36:14;;;;;;;1.20;0.77;;;16.90;99.90;;;;;;5068197;28;20792;-69
2023/10/30 09:38:41;;;;;;;1.13;0.80;;;16.80;99.90;;;;;;5068042;28;20914;-70
2023/10/30 09:41:10;;;;;;;2.00;0.80;;;16.80;99.90;;;;;;5068049;28;21382;-70
2023/10/30 09:43:37;;;;;;;3.07;0.80;;;16.60;99.90;;;;;;5068279;28;20424;-71
2023/10/30 09:46:07;;;;;;;0.93;0.77;;;16.30;99.90;;;;;;5066695;28;20434;-70
2023/10/30 09:48:33;;;;;;;1.87;1.10;;;16.20;99.90;;;;;;5068120;28;20446;-70
2023/10/30 09:51:00;;;;;;;1.53;0.87;;;16.20;99.90;;;;;;5066763;28;20461;-70
2023/10/30 09:53:27;;;;;;;1.10;1.00;;;16.10;99.90;;;;;;5068084;28;20802;-70
2023/10/30 09:55:54;;;;;;;3.07;1.00;;;15.80;99.90;;;;;;5068099;28;21143;-70
2023/10/30 09:58:23;;;;;;;1.90;0.87;;;15.80;99.90;;;;;;5066583;28;20436;-69
2023/10/30 10:00:49;;;;;;;2.60;0.90;;;15.70;99.90;;;;;;5065789;28;21133;-69
2023/10/30 10:03:15;;;;;;;3.83;1.30;;;15.70;99.90;;;;;;5067525;28;20435;-70
2023/10/30 10:05:41;;;;;;;0.97;0.70;;;15.60;99.90;;;;;;5067532;28;20183;-70
2023/10/30 10:08:08;;;;;;;0.93;0.70;;;15.60;99.90;;;;;;5067275;28;20261;-71
2023/10/30 10:10:59;;;;;;;4.43;1.17;;;15.70;99.90;;;;;;5067454;28;20419;-70
2023/10/30 10:13:27;;;;;;;1.10;0.90;;;15.70;99.90;;;;;;5070789;28;20405;-69
2023/10/30 10:15:53;;;;;;;0.87;0.70;;;15.70;99.90;;;;;;5071551;28;20479;-70
2023/10/30 10:18:25;;;;;;;1.60;0.93;;;15.50;99.90;;;;;;5072559;28;20430;-70
2023/10/30 10:20:59;;;;;;;1.10;0.80;;;15.40;99.90;;;;;;5070165;28;21048;-70
2023/10/30 10:23:32;;;;;;;1.43;0.90;;;15.30;99.90;;;;;;5071794;28;20409;-69
2023/10/30 10:26:06;;;;;;;1.80;1.07;;;15.40;99.90;;;;;;5072002;28;20468;-69
2023/10/30 10:28:33;;;;;;;1.87;0.70;;;15.40;99.90;;;;;;5070567;28;20449;-70
2023/10/30 10:30:59;;;;;;;0.90;0.60;;;15.40;99.90;;;;;;5071865;28;20413;-70
2023/10/30 10:33:29;;;;;;;2.50;0.90;;;15.40;99.90;;;;;;5070386;28;20443;-70
2023/10/30 10:35:57;;;;;;;1.30;0.80;;;15.30;99.90;;;;;;5070257;28;20487;-70
2023/10/30 10:38:23;;;;;;;1.10;0.83;;;15.50;99.90;;;;;;5071710;28;20438;-70
2023/10/30 10:40:50;;;;;;;2.80;1.00;;;15.40;99.90;;;;;;5071820;28;21026;-69
2023/10/30 10:43:18;;;;;;;1.57;0.90;;;15.40;99.90;;;;;;5072037;28;20184;-70
2023/10/30 10:45:49;;;;;;;7.00;0.90;;;15.40;99.90;;;;;;5072119;28;20775;-70
2023/10/30 10:48:15;;;;;;;4.37;1.10;;;15.40;99.90;;;;;;5070672;28;20437;-71
2023/10/30 10:50:42;;;;;;;2.80;0.90;;;15.30;99.90;;;;;;5071372;28;20410;-69
2023/10/30 10:53:08;;;;;;;1.57;0.70;;;15.40;99.90;;;;;;5071027;28;20423;-69
2023/10/30 10:55:44;;;;;;;1.73;1.00;;;15.40;99.90;;;;;;5071066;28;20514;-70
2023/10/30 10:58:20;;;;;;;3.73;0.90;;;15.40;99.90;;;;;;5070837;28;20521;-71
2023/10/30 11:00:48;;;;;;;5.90;0.90;;;15.40;99.90;;;;;;5053572;28;20458;-70
2023/10/30 11:03:14;;;;;;;2.00;0.93;;;15.50;99.90;;;;;;5069102;28;20512;-72
2023/10/30 11:05:42;;;;;;;2.33;0.80;;;15.50;99.90;;;;;;5070575;28;20909;-71
2023/10/30 11:08:19;;;;;;;2.13;0.93;;;15.60;99.90;;;;;;5070104;28;20522;-71
2023/10/30 11:11:06;;;;;;;2.17;1.20;;;15.60;99.90;;;;;;5070797;28;20443;-71
2023/10/30 11:14:10;;;;;;;1.90;1.10;;;15.40;99.90;;;;;;5070291;28;20503;-70
2023/10/30 11:16:43;;;;;;;1.83;0.90;;;15.40;99.90;;;;;;5070857;28;20416;-70
2023/10/30 11:19:10;;;;;;;1.10;0.83;;;15.30;99.90;;;;;;5071762;28;20434;-71
2023/10/30 11:21:35;;;;;;;1.93;1.00;;;15.40;99.90;;;;;;5070702;28;20463;-70
2023/10/30 11:24:02;;;;;;;1.20;0.90;;;15.40;99.90;;;;;;5070188;28;20425;-71
2023/10/30 11:26:36;;;;;;;1.73;0.90;;;15.30;99.90;;;;;;5070104;28;20221;-69
2023/10/30 11:29:44;;;;;;;6.17;1.20;;;15.30;99.90;;;;;;5069906;28;20943;-70
2023/10/30 11:32:14;;;;;;;1.20;0.70;;;15.30;99.90;;;;;;5069663;28;20423;-71
2023/10/30 11:34:40;;;;;;;1.73;1.30;;;15.30;99.90;;;;;;5070120;28;20828;-71
2023/10/30 11:37:13;;;;;;;3.00;1.27;;;15.30;99.90;;;;;;5069863;28;20433;-71
2023/10/30 11:39:44;;;;;;;1.80;1.10;;;15.30;99.90;;;;;;5068504;28;20438;-71
2023/10/30 11:42:21;;;;;;;2.57;1.13;;;15.20;99.90;;;;;;5069714;28;20462;-71
2023/10/30 11:44:47;;;;;;;1.53;1.17;;;15.20;99.90;;;;;;5069772;28;20920;-70
2023/10/30 11:47:13;;;;;;;2.60;1.00;;;15.30;99.90;;;;;;5051821;28;20475;-70
2023/10/30 11:49:41;;;;;;;1.50;0.90;;;15.40;99.90;;;;;;5070046;28;20182;-70
2023/10/30 11:52:10;;;;;;;1.97;1.10;;;15.50;99.90;;;;;;5069957;28;20278;-70
2023/10/30 11:54:39;;;;;;;2.30;1.43;;;15.60;99.90;;;;;;5069842;28;20426;-70
2023/10/30 11:57:05;;;;;;;3.20;1.30;;;15.70;99.90;;;;;;5068404;28;21026;-70
2023/10/30 11:59:31;;;;;;;3.10;1.13;;;16.00;99.90;;;;;;5068810;28;20488;-70
2023/10/30 12:01:57;;;;;;;1.47;1.10;;;16.10;99.90;;;;;;5068615;28;20470;-70
2023/10/30 12:04:24;;;;;;;1.20;1.03;;;16.00;99.90;;;;;;5069807;28;20647;-71
2023/10/30 12:06:50;;;;;;;1.40;0.90;;;16.00;99.90;;;;;;5069599;28;20417;-71
2023/10/30 12:09:16;;;;;;;2.30;1.40;;;16.10;99.90;;;;;;5068011;28;20844;-70
2023/10/30 12:11:43;;;;;;;4.10;1.10;;;16.40;99.90;;;;;;5069331;28;20423;-70
2023/10/30 12:14:09;;;;;;;1.83;0.90;;;16.50;99.90;;;;;;5069415;28;20484;-69
2023/10/30 12:16:34;;;;;;;1.33;0.97;;;16.60;99.90;;;;;;5069663;28;20424;-70
2023/10/30 12:19:01;;;;;;;2.10;1.00;;;16.70;99.90;;;;;;5069527;28;20312;-70
2023/10/30 12:21:28;;;;;;;1.30;1.03;;;16.70;99.90;;;;;;5069606;28;20497;-70
2023/10/30 12:23:57;;;;;;;3.13;0.87;;;16.80;99.90;;;;;;5068471;28;20463;-70
2023/10/30 12:26:23;;;;;;;1.07;0.80;;;16.90;99.90;;;;;;5069962;28;20444;-69
2023/10/30 12:28:49;;;;;;;1.87;1.00;;;16.90;99.90;;;;;;5069937;28;20946;-69
2023/10/30 12:31:26;;;;;;;3.00;1.20;;;16.90;99.90;;;;;;5069974;28;20418;-69
2023/10/30 12:34:11;;;;;;;2.30;1.10;;;16.90;99.90;;;;;;5068377;28;20809;-69
2023/10/30 12:36:38;;;;;;;3.00;0.90;;;17.00;99.90;;;;;;5068798;28;20433;-69
2023/10/30 12:39:21;;;;;;;2.03;0.90;;;16.80;99.90;;;;;;5067439;28;20548;-69
2023/10/30 12:41:55;;;;;;;3.33;1.00;;;16.80;99.90;;;;;;5068614;28;20547;-69
2023/10/30 12:44:23;;;;;;;1.30;1.10;;;16.80;99.90;;;;;;5068778;28;21128;-69